Time,TemperatureF,DewpointF,PressureIn,WindDirection,WindDirectionDegrees,WindSpeedMPH,WindSpeedGustMPH,Humidity,HourlyPrecipIn,Conditions,Clouds,dailyrainin,SolarRadiationWatts/m^2,SoftwareType,DateUTC
2013-07-19 00:02:00,82.2,71.9,29.74,West,274,7.0,7.0,71,0.00,,,0.00,0,Wunderground v.1.15,2013-07-19 05:02:00,
2013-07-19 00:12:00,82.4,72.0,29.73,West,263,7.0,7.0,71,0.00,,,0.00,0,Wunderground v.1.15,2013-07-19 05:12:00,
2013-07-19 00:22:00,82.4,71.6,29.73,SW,229,6.0,6.0,70,0.00,,,0.00,0,Wunderground v.1.15,2013-07-19 05:22:00,
2013-07-19 00:32:00,82.4,71.6,29.73,WSW,239,7.0,7.0,70,0.00,,,0.00,0,Wunderground v.1.15,2013-07-19 05:32:00,
2013-07-19 00:42:00,82.4,71.6,29.72,SW,216,7.0,7.0,70,0.00,,,0.00,0,Wunderground v.1.15,2013-07-19 05:42:00,
2013-07-19 00:52:00,82.2,71.4,29.72,SSW,212,8.0,11.0,70,0.00,,,0.00,0,Wunderground v.1.15,2013-07-19 05:52:00,
2013-07-19 01:02:00,82.2,71.4,29.72,West,277,6.0,7.0,70,0.00,,,0.00,0,Wunderground v.1.15,2013-07-19 06:02:00,
2013-07-19 01:12:00,82.0,71.2,29.71,SW,215,6.0,6.0,70,0.00,,,0.00,0,Wunderground v.1.15,2013-07-19 06:12:00,
2013-07-19 01:22:00,82.0,71.2,29.71,SW,215,6.0,8.0,70,0.00,,,0.00,0,Wunderground v.1.15,2013-07-19 06:22:00,
2013-07-19 01:32:00,82.0,70.8,29.71,SW,230,8.0,8.0,69,0.00,,,0.00,0,Wunderground v.1.15,2013-07-19 06:32:00,
2013-07-19 01:42:00,81.8,70.6,29.70,WSW,237,6.0,6.0,69,0.00,,,0.00,0,Wunderground v.1.15,2013-07-19 06:42:00,
2013-07-19 01:52:00,82.2,70.6,29.69,West,263,8.0,8.0,68,0.00,,,0.00,0,Wunderground v.1.15,2013-07-19 06:52:00,
2013-07-19 02:02:00,82.2,70.1,29.69,WSW,247,8.0,15.0,67,0.00,,,0.00,0,Wunderground v.1.15,2013-07-19 07:02:00,
2013-07-19 02:12:00,82.6,70.1,29.69,WSW,248,9.0,9.0,66,0.00,,,0.00,0,Wunderground v.1.15,2013-07-19 07:12:00,
2013-07-19 02:22:00,82.6,70.1,29.68,West,260,8.0,8.0,66,0.00,,,0.00,0,Wunderground v.1.15,2013-07-19 07:22:00,
2013-07-19 02:32:00,82.6,70.1,29.68,WSW,246,8.0,12.0,66,0.00,,,0.00,0,Wunderground v.1.15,2013-07-19 07:32:00,
2013-07-19 02:42:00,82.6,70.1,29.67,West,265,8.0,13.0,66,0.00,,,0.00,0,Wunderground v.1.15,2013-07-19 07:42:00,
2013-07-19 02:52:00,82.4,69.9,29.67,WSW,240,8.0,11.0,66,0.00,,,0.00,0,Wunderground v.1.15,2013-07-19 07:52:00,
2013-07-19 03:02:00,82.4,69.9,29.67,WSW,246,8.0,8.0,66,0.00,,,0.00,0,Wunderground v.1.15,2013-07-19 08:02:00,
2013-07-19 03:12:00,82.2,70.1,29.66,WSW,243,6.0,6.0,67,0.00,,,0.00,0,Wunderground v.1.15,2013-07-19 08:12:00,
2013-07-19 03:22:00,82.0,69.5,29.66,SW,233,6.0,9.0,66,0.00,,,0.00,0,Wunderground v.1.15,2013-07-19 08:22:00,
2013-07-19 03:32:00,82.2,69.7,29.66,WSW,241,8.0,8.0,66,0.00,,,0.00,0,Wunderground v.1.15,2013-07-19 08:32:00,
2013-07-19 03:42:00,82.2,69.7,29.65,West,270,9.0,10.0,66,0.00,,,0.00,0,Wunderground v.1.15,2013-07-19 08:42:00,
2013-07-19 03:52:00,82.0,69.5,29.65,WSW,247,7.0,7.0,66,0.00,,,0.00,0,Wunderground v.1.15,2013-07-19 08:52:00,
2013-07-19 04:02:00,82.0,69.5,29.65,SW,233,8.0,9.0,66,0.00,,,0.00,0,Wunderground v.1.15,2013-07-19 09:02:00,
2013-07-19 04:12:00,81.8,69.3,29.64,West,270,6.0,6.0,66,0.00,,,0.00,0,Wunderground v.1.15,2013-07-19 09:12:00,
2013-07-19 04:22:00,81.8,69.3,29.63,SW,224,7.0,7.0,66,0.00,,,0.00,0,Wunderground v.1.15,2013-07-19 09:22:00,
2013-07-19 04:32:00,82.0,69.1,29.63,West,280,9.0,12.0,65,0.00,,,0.00,0,Wunderground v.1.15,2013-07-19 09:32:00,
2013-07-19 04:42:00,81.8,69.3,29.63,West,275,7.0,14.0,66,0.00,,,0.00,0,Wunderground v.1.15,2013-07-19 09:42:00,
2013-07-19 04:52:00,81.8,68.9,29.63,WSW,243,9.0,14.0,65,0.00,,,0.00,0,Wunderground v.1.15,2013-07-19 09:52:00,
2013-07-19 05:02:00,81.8,69.3,29.63,West,270,8.0,8.0,66,0.00,,,0.00,0,Wunderground v.1.15,2013-07-19 10:02:00,
2013-07-19 05:12:00,81.6,69.1,29.63,West,261,7.0,7.0,66,0.00,,,0.00,0,Wunderground v.1.15,2013-07-19 10:12:00,
2013-07-19 05:22:00,81.4,68.9,29.63,WSW,253,6.0,6.0,66,0.00,,,0.00,0,Wunderground v.1.15,2013-07-19 10:22:00,
2013-07-19 05:32:00,81.4,68.9,29.63,SW,217,7.0,13.0,66,0.00,,,0.00,5,Wunderground v.1.15,2013-07-19 10:32:00,
2013-07-19 05:42:00,81.4,68.9,29.63,West,277,7.0,11.0,66,0.00,,,0.00,11,Wunderground v.1.15,2013-07-19 10:42:00,
2013-07-19 05:52:00,81.2,69.2,29.63,WSW,258,6.0,6.0,67,0.00,,,0.00,21,Wunderground v.1.15,2013-07-19 10:52:00,
2013-07-19 06:02:00,81.1,69.1,29.63,SW,217,8.0,8.0,67,0.00,,,0.00,25,Wunderground v.1.15,2013-07-19 11:02:00,
2013-07-19 06:12:00,81.1,69.5,29.63,WSW,251,7.0,7.0,68,0.00,,,0.00,32,Wunderground v.1.15,2013-07-19 11:12:00,
2013-07-19 06:22:00,80.9,69.3,29.63,West,260,6.0,13.0,68,0.00,,,0.00,46,Wunderground v.1.15,2013-07-19 11:22:00,
2013-07-19 06:32:00,81.4,69.4,29.63,SW,232,8.0,12.0,67,0.00,,,0.00,121,Wunderground v.1.15,2013-07-19 11:32:00,
2013-07-19 06:42:00,81.6,69.6,29.62,WSW,240,9.0,9.0,67,0.00,,,0.00,144,Wunderground v.1.15,2013-07-19 11:42:00,
2013-07-19 06:52:00,81.6,69.6,29.62,SW,236,8.0,8.0,67,0.00,,,0.00,187,Wunderground v.1.15,2013-07-19 11:52:00,
2013-07-19 07:02:00,82.0,69.5,29.62,WSW,251,10.0,17.0,66,0.00,,,0.00,208,Wunderground v.1.15,2013-07-19 12:02:00,
2013-07-19 07:12:00,82.0,70.0,29.62,West,268,9.0,13.0,67,0.00,,,0.00,227,Wunderground v.1.15,2013-07-19 12:12:00,
2013-07-19 07:22:00,82.0,70.0,29.63,SSW,208,10.0,10.0,67,0.00,,,0.00,232,Wunderground v.1.15,2013-07-19 12:22:00,
2013-07-19 07:32:00,82.2,70.1,29.63,West,260,11.0,11.0,67,0.00,,,0.00,324,Wunderground v.1.15,2013-07-19 12:32:00,
2013-07-19 07:42:00,82.0,70.0,29.63,WSW,258,12.0,12.0,67,0.00,,,0.00,202,Wunderground v.1.15,2013-07-19 12:42:00,
2013-07-19 07:52:00,81.8,70.2,29.64,West,275,11.0,11.0,68,0.00,,,0.00,257,Wunderground v.1.15,2013-07-19 12:52:00,
2013-07-19 08:02:00,81.8,70.6,29.64,West,261,8.0,10.0,69,0.00,,,0.00,204,Wunderground v.1.15,2013-07-19 13:02:00,
2013-07-19 08:12:00,81.6,70.4,29.65,WSW,246,11.0,18.0,69,0.00,,,0.00,134,Wunderground v.1.15,2013-07-19 13:12:00,
2013-07-19 08:22:00,81.1,70.4,29.66,West,263,12.0,14.0,70,0.00,,,0.00,160,Wunderground v.1.15,2013-07-19 13:22:00,
2013-07-19 08:32:00,80.5,70.2,29.66,West,281,12.0,12.0,71,0.00,,,0.00,74,Wunderground v.1.15,2013-07-19 13:32:00,
2013-07-19 08:42:00,78.1,71.4,29.65,West,268,10.0,11.0,80,0.00,,,0.00,42,Wunderground v.1.15,2013-07-19 13:42:00,
2013-07-19 08:52:00,76.3,71.8,29.64,WNW,291,8.0,8.0,86,0.00,,,0.01,70,Wunderground v.1.15,2013-07-19 13:52:00,
2013-07-19 09:02:00,75.4,71.6,29.64,WNW,282,5.0,5.0,88,0.09,,,0.02,188,Wunderground v.1.15,2013-07-19 14:02:00,
2013-07-19 09:12:00,75.1,72.6,29.63,West,275,6.0,6.0,92,0.04,,,0.02,162,Wunderground v.1.15,2013-07-19 14:12:00,
2013-07-19 09:22:00,75.3,72.5,29.63,West,267,6.0,6.0,91,0.00,,,0.02,209,Wunderground v.1.15,2013-07-19 14:22:00,
2013-07-19 09:32:00,75.8,72.0,29.63,WNW,285,5.0,8.0,88,0.00,,,0.02,183,Wunderground v.1.15,2013-07-19 14:32:00,
2013-07-19 09:42:00,76.1,71.6,29.62,West,271,7.0,7.0,86,0.00,,,0.02,225,Wunderground v.1.15,2013-07-19 14:42:00,
2013-07-19 09:52:00,76.7,71.1,29.62,WNW,287,6.0,6.0,83,0.00,,,0.02,162,Wunderground v.1.15,2013-07-19 14:52:00,
2013-07-19 10:12:00,79.8,71.2,29.62,West,275,9.0,9.0,75,0.00,,,0.02,758,Wunderground v.1.15,2013-07-19 15:12:00,
2013-07-19 10:22:00,80.3,71.3,29.62,West,277,11.0,11.0,74,0.00,,,0.02,375,Wunderground v.1.15,2013-07-19 15:22:00,
2013-07-19 10:32:00,81.2,72.1,29.62,WSW,243,11.0,11.0,74,0.00,,,0.02,454,Wunderground v.1.15,2013-07-19 15:32:00,
2013-07-19 10:42:00,80.9,71.8,29.62,WNW,289,11.0,11.0,74,0.00,,,0.02,334,Wunderground v.1.15,2013-07-19 15:42:00,
2013-07-19 10:52:00,81.8,72.3,29.62,West,281,11.0,17.0,73,0.00,,,0.02,822,Wunderground v.1.15,2013-07-19 15:52:00,
2013-07-19 11:02:00,82.8,72.8,29.62,WSW,248,9.0,13.0,72,0.00,,,0.02,767,Wunderground v.1.15,2013-07-19 16:02:00,
2013-07-19 11:12:00,82.6,72.7,29.61,SW,226,11.0,11.0,72,0.00,,,0.02,540,Wunderground v.1.15,2013-07-19 16:12:00,
2013-07-19 11:22:00,82.2,72.3,29.62,West,275,10.0,12.0,72,0.00,,,0.02,276,Wunderground v.1.15,2013-07-19 16:22:00,
2013-07-19 11:32:00,82.4,73.7,29.62,WSW,243,10.0,10.0,75,0.00,,,0.02,866,Wunderground v.1.15,2013-07-19 16:32:00,
2013-07-19 11:42:00,83.6,72.3,29.62,WSW,258,9.0,11.0,69,0.00,,,0.02,882,Wunderground v.1.15,2013-07-19 16:42:00,
2013-07-19 11:52:00,83.0,73.4,29.62,WNW,299,9.0,9.0,73,0.00,,,0.02,477,Wunderground v.1.15,2013-07-19 16:52:00,
2013-07-19 12:02:00,84.0,72.3,29.62,WNW,282,9.0,11.0,68,0.00,,,0.02,841,Wunderground v.1.15,2013-07-19 17:02:00,
2013-07-19 12:12:00,84.5,71.4,29.62,WNW,296,10.0,11.0,65,0.00,,,0.02,834,Wunderground v.1.15,2013-07-19 17:12:00,
2013-07-19 12:22:00,85.1,72.0,29.62,West,272,10.0,10.0,65,0.00,,,0.02,838,Wunderground v.1.15,2013-07-19 17:22:00,
2013-07-19 12:32:00,85.3,72.2,29.62,WSW,251,10.0,14.0,65,0.00,,,0.02,841,Wunderground v.1.15,2013-07-19 17:32:00,
2013-07-19 12:42:00,85.5,71.5,29.62,West,263,10.0,13.0,63,0.00,,,0.02,850,Wunderground v.1.15,2013-07-19 17:42:00,
2013-07-19 12:52:00,85.9,71.4,29.62,West,275,10.0,11.0,62,0.00,,,0.02,859,Wunderground v.1.15,2013-07-19 17:52:00,
2013-07-19 13:02:00,86.5,71.5,29.62,WNW,298,9.0,9.0,61,0.00,,,0.02,890,Wunderground v.1.15,2013-07-19 18:02:00,
2013-07-19 13:12:00,86.7,69.6,29.62,WNW,288,9.0,9.0,57,0.00,,,0.02,857,Wunderground v.1.15,2013-07-19 18:12:00,
2013-07-19 13:22:00,87.2,70.6,29.62,West,267,9.0,12.0,58,0.00,,,0.02,850,Wunderground v.1.15,2013-07-19 18:22:00,
2013-07-19 13:32:00,87.0,70.9,29.62,WNW,284,11.0,11.0,59,0.00,,,0.02,836,Wunderground v.1.15,2013-07-19 18:32:00,
2013-07-19 13:42:00,87.4,69.8,29.62,West,275,9.0,9.0,56,0.00,,,0.02,830,Wunderground v.1.15,2013-07-19 18:42:00,
2013-07-19 13:52:00,87.6,70.0,29.62,WNW,284,11.0,11.0,56,0.00,,,0.02,822,Wunderground v.1.15,2013-07-19 18:52:00,
2013-07-19 14:12:00,88.2,69.5,29.61,WNW,285,9.0,9.0,54,0.00,,,0.02,808,Wunderground v.1.15,2013-07-19 19:12:00,
2013-07-19 14:22:00,88.4,69.6,29.61,West,260,9.0,9.0,54,0.00,,,0.02,816,Wunderground v.1.15,2013-07-19 19:22:00,
2013-07-19 14:32:00,88.8,70.0,29.61,West,272,9.0,16.0,54,0.00,,,0.02,781,Wunderground v.1.15,2013-07-19 19:32:00,
2013-07-19 14:42:00,88.8,70.5,29.61,WNW,294,9.0,9.0,55,0.00,,,0.02,767,Wunderground v.1.15,2013-07-19 19:42:00,
2013-07-19 14:52:00,88.6,70.4,29.60,West,261,10.0,10.0,55,0.00,,,0.02,755,Wunderground v.1.15,2013-07-19 19:52:00,
2013-07-19 15:12:00,89.3,69.9,29.61,NW,311,9.0,9.0,53,0.00,,,0.02,720,Wunderground v.1.15,2013-07-19 20:12:00,
2013-07-19 15:22:00,89.5,69.5,29.61,WSW,250,9.0,9.0,52,0.00,,,0.02,716,Wunderground v.1.15,2013-07-19 20:22:00,
2013-07-19 15:32:00,89.7,69.7,29.61,NNW,346,10.0,10.0,52,0.00,,,0.02,706,Wunderground v.1.15,2013-07-19 20:32:00,
2013-07-19 15:42:00,87.2,69.1,29.61,NNW,332,9.0,9.0,55,0.00,,,0.02,681,Wunderground v.1.15,2013-07-19 20:42:00,
2013-07-19 15:52:00,87.2,66.3,29.62,NW,326,8.0,8.0,50,0.00,,,0.02,651,Wunderground v.1.15,2013-07-19 20:52:00,
2013-07-19 16:02:00,87.6,67.2,29.62,NNW,347,5.0,6.0,51,0.00,,,0.02,640,Wunderground v.1.15,2013-07-19 21:02:00,
2013-07-19 16:12:00,88.0,67.0,29.62,North,354,5.0,8.0,50,0.00,,,0.02,609,Wunderground v.1.15,2013-07-19 21:12:00,
2013-07-19 16:22:00,87.8,71.2,29.62,NNW,340,5.0,5.0,58,0.00,,,0.02,588,Wunderground v.1.15,2013-07-19 21:22:00,
2013-07-19 16:32:00,87.2,70.1,29.62,NE,37,7.0,7.0,57,0.00,,,0.02,607,Wunderground v.1.15,2013-07-19 21:32:00,
2013-07-19 16:42:00,86.5,69.5,29.62,North,357,6.0,6.0,57,0.00,,,0.02,604,Wunderground v.1.15,2013-07-19 21:42:00,
2013-07-19 16:52:00,84.9,69.5,29.63,NE,45,6.0,7.0,60,0.00,,,0.02,528,Wunderground v.1.15,2013-07-19 21:52:00,
2013-07-19 17:02:00,83.2,70.7,29.63,East,79,7.0,7.0,66,0.00,,,0.02,482,Wunderground v.1.15,2013-07-19 22:02:00,
2013-07-19 17:12:00,83.6,68.7,29.64,North,8,5.0,5.0,61,0.00,,,0.02,477,Wunderground v.1.15,2013-07-19 22:12:00,
2013-07-19 17:22:00,84.0,67.6,29.64,NE,34,6.0,6.0,58,0.00,,,0.02,438,Wunderground v.1.15,2013-07-19 22:22:00,
2013-07-19 17:32:00,84.1,68.7,29.64,NNW,343,5.0,5.0,60,0.00,,,0.02,403,Wunderground v.1.15,2013-07-19 22:32:00,
2013-07-19 17:42:00,84.3,68.4,29.64,North,4,4.0,5.0,59,0.00,,,0.02,433,Wunderground v.1.15,2013-07-19 22:42:00,
2013-07-19 17:52:00,84.5,68.1,29.63,NNE,16,4.0,5.0,58,0.00,,,0.02,389,Wunderground v.1.15,2013-07-19 22:52:00,
2013-07-19 18:02:00,83.6,68.7,29.63,NNE,20,3.0,3.0,61,0.00,,,0.02,49,Wunderground v.1.15,2013-07-19 23:02:00,
2013-07-19 18:12:00,81.6,68.7,29.63,ENE,64,4.0,4.0,65,0.00,,,0.02,74,Wunderground v.1.15,2013-07-19 23:12:00,
2013-07-19 18:22:00,77.6,69.4,29.65,ENE,76,2.0,3.0,76,0.32,,,0.08,77,Wunderground v.1.15,2013-07-19 23:22:00,
2013-07-19 18:32:00,74.6,70.5,29.65,South,181,4.0,4.0,87,0.05,,,0.08,67,Wunderground v.1.15,2013-07-19 23:32:00,
2013-07-19 18:42:00,73.9,70.5,29.66,South,182,1.0,1.0,89,0.00,,,0.08,32,Wunderground v.1.15,2013-07-19 23:42:00,
2013-07-19 18:52:00,73.2,70.4,29.67,South,174,2.0,2.0,91,0.00,,,0.08,51,Wunderground v.1.15,2013-07-19 23:52:00,
2013-07-19 19:02:00,73.2,70.4,29.67,SSE,158,4.0,4.0,91,0.00,,,0.08,51,Wunderground v.1.15,2013-07-20 00:02:00,
2013-07-19 19:12:00,73.2,69.8,29.66,SSE,158,2.0,2.0,89,0.00,,,0.08,55,Wunderground v.1.15,2013-07-20 00:12:00,
2013-07-19 19:22:00,73.9,69.1,29.67,SSE,158,0.0,0.0,85,0.00,,,0.08,72,Wunderground v.1.15,2013-07-20 00:22:00,
2013-07-19 19:32:00,74.2,70.1,29.67,SSE,158,0.0,0.0,87,0.00,,,0.08,28,Wunderground v.1.15,2013-07-20 00:32:00,
2013-07-19 19:42:00,73.9,71.1,29.67,SSE,158,0.0,0.0,91,0.00,,,0.08,18,Wunderground v.1.15,2013-07-20 00:42:00,
2013-07-19 19:52:00,73.3,71.5,29.68,SSE,158,0.0,0.0,94,0.00,,,0.08,19,Wunderground v.1.15,2013-07-20 00:52:00,
2013-07-19 20:02:00,72.8,71.3,29.68,SSE,158,1.0,1.0,95,0.00,,,0.08,14,Wunderground v.1.15,2013-07-20 01:02:00,
2013-07-19 20:12:00,72.7,71.2,29.69,SSE,158,1.0,1.0,95,0.00,,,0.08,5,Wunderground v.1.15,2013-07-20 01:12:00,
2013-07-19 20:22:00,72.0,69.2,29.69,SE,140,3.0,5.0,91,0.00,,,0.08,0,Wunderground v.1.15,2013-07-20 01:22:00,
2013-07-19 20:32:00,72.0,68.6,29.69,SE,141,3.0,3.0,89,0.00,,,0.08,0,Wunderground v.1.15,2013-07-20 01:32:00,
2013-07-19 20:42:00,71.8,68.7,29.69,SE,141,0.0,0.0,90,0.00,,,0.08,0,Wunderground v.1.15,2013-07-20 01:42:00,
2013-07-19 20:52:00,71.5,68.7,29.70,SE,141,1.0,2.0,91,0.00,,,0.08,0,Wunderground v.1.15,2013-07-20 01:52:00,
2013-07-19 21:02:00,71.3,68.2,29.70,East,96,4.0,4.0,90,0.00,,,0.08,0,Wunderground v.1.15,2013-07-20 02:02:00,
2013-07-19 21:12:00,70.9,68.1,29.71,East,96,1.0,1.0,91,0.00,,,0.08,0,Wunderground v.1.15,2013-07-20 02:12:00,
2013-07-19 21:22:00,70.4,68.0,29.72,East,96,2.0,6.0,92,0.00,,,0.08,0,Wunderground v.1.15,2013-07-20 02:22:00,
2013-07-19 21:42:00,69.8,66.7,29.73,East,96,1.0,1.0,90,0.00,,,0.08,0,Wunderground v.1.15,2013-07-20 02:42:00,
2013-07-19 21:52:00,69.4,66.7,29.73,East,96,0.0,0.0,91,0.00,,,0.08,0,Wunderground v.1.15,2013-07-20 02:52:00,
2013-07-19 22:02:00,68.9,66.5,29.73,East,96,1.0,1.0,92,0.00,,,0.08,0,Wunderground v.1.15,2013-07-20 03:02:00,
2013-07-19 22:12:00,68.4,66.3,29.74,East,96,0.0,0.0,93,0.00,,,0.08,0,Wunderground v.1.15,2013-07-20 03:12:00,
2013-07-19 22:22:00,68.1,66.3,29.74,East,96,0.0,0.0,94,0.00,,,0.08,0,Wunderground v.1.15,2013-07-20 03:22:00,
2013-07-19 22:32:00,67.6,66.1,29.74,East,96,0.0,0.0,95,0.00,,,0.08,0,Wunderground v.1.15,2013-07-20 03:32:00,
2013-07-19 22:42:00,67.1,65.9,29.74,East,96,0.0,0.0,96,0.00,,,0.08,0,Wunderground v.1.15,2013-07-20 03:42:00,
2013-07-19 22:52:00,66.8,65.9,29.74,East,96,0.0,0.0,97,0.00,,,0.08,0,Wunderground v.1.15,2013-07-20 03:52:00,
2013-07-19 23:02:00,66.3,65.4,29.74,East,96,0.0,0.0,97,0.00,,,0.08,0,Wunderground v.1.15,2013-07-20 04:02:00,
2013-07-19 23:12:00,66.0,65.7,29.74,East,96,0.0,0.0,99,0.00,,,0.08,0,Wunderground v.1.15,2013-07-20 04:12:00,
2013-07-19 23:22:00,65.8,65.5,29.74,East,96,0.0,0.0,99,0.00,,,0.08,0,Wunderground v.1.15,2013-07-20 04:22:00,
2013-07-19 23:32:00,65.3,65.0,29.74,East,96,0.0,0.0,99,0.00,,,0.08,0,Wunderground v.1.15,2013-07-20 04:32:00,
2013-07-19 23:42:00,65.2,65.2,29.75,East,96,0.0,0.0,100,0.00,,,0.08,0,Wunderground v.1.15,2013-07-20 04:42:00,
2013-07-19 23:52:00,65.5,65.5,29.75,East,96,0.0,0.0,100,0.00,,,0.08,0,Wunderground v.1.15,2013-07-20 04:52:00,